Time;durP1;ratioP1;P1;durP2;ratioP2;P2;SDS_P1;SDS_P2;PMS_P1;PMS_P2;Temp;Humidity;BMP_temperature;BMP_pressure;BME280_temperature;BME280_humidity;BME280_pressure;Samples;Min_cycle;Max_cycle;Signal;HPM_P1;HPM_P2
2024/01/22 00:01:42;;;;;;;6.77;4.10;;;;;;;;;;4957018;29;20039;-61
2024/01/22 00:04:08;;;;;;;11.20;4.75;;;;;;;;;;4956695;29;20035;-61
2024/01/22 00:06:38;;;;;;;11.85;5.30;;;;;;;;;;4962961;29;20046;-61
2024/01/22 00:09:04;;;;;;;10.77;4.90;;;;;;;;;;4941802;29;20027;-61
2024/01/22 00:11:29;;;;;;;12.47;4.73;;;;;;;;;;4940472;29;20277;-60
2024/01/22 00:13:56;;;;;;;6.72;3.60;;;;;;;;;;4961372;29;20090;-60
2024/01/22 00:16:25;;;;;;;12.50;4.38;;;;;;;;;;4962997;29;20067;-61
2024/01/22 00:18:51;;;;;;;12.47;4.40;;;;;;;;;;4956487;29;20057;-60
2024/01/22 00:21:16;;;;;;;13.30;3.87;;;;;;;;;;4956845;29;20282;-60
2024/01/22 00:23:42;;;;;;;14.07;4.25;;;;;;;;;;4956694;29;20030;-61
2024/01/22 00:26:12;;;;;;;14.27;4.53;;;;;;;;;;4961771;29;20083;-60
2024/01/22 00:28:38;;;;;;;6.47;3.27;;;;;;;;;;4960769;29;20265;-60
2024/01/22 00:31:03;;;;;;;10.52;4.32;;;;;;;;;;4955594;29;20293;-60
2024/01/22 00:33:29;;;;;;;8.75;4.07;;;;;;;;;;4960466;29;20028;-60
2024/01/22 00:35:55;;;;;;;9.17;4.47;;;;;;;;;;4962529;29;20039;-60
2024/01/22 00:38:21;;;;;;;7.75;3.53;;;;;;;;;;4967486;29;20274;-61
2024/01/22 00:40:47;;;;;;;9.13;3.37;;;;;;;;;;4964130;29;20058;-60
2024/01/22 00:43:12;;;;;;;8.87;3.40;;;;;;;;;;4960283;29;20032;-61
2024/01/22 00:45:37;;;;;;;21.67;4.27;;;;;;;;;;4946084;29;20028;-60
2024/01/22 00:48:04;;;;;;;12.63;3.17;;;;;;;;;;4960315;29;20024;-60
2024/01/22 00:50:29;;;;;;;9.07;4.10;;;;;;;;;;4960285;29;20040;-60
2024/01/22 00:52:54;;;;;;;13.18;3.92;;;;;;;;;;4960042;29;20103;-60
2024/01/22 00:55:20;;;;;;;14.57;3.37;;;;;;;;;;4961750;29;20036;-60
2024/01/22 00:57:45;;;;;;;9.70;3.47;;;;;;;;;;4960412;29;20269;-61
2024/01/22 01:00:11;;;;;;;8.37;3.70;;;;;;;;;;4960008;29;20024;-60
2024/01/22 01:02:36;;;;;;;10.98;3.08;;;;;;;;;;4959696;29;20435;-60
2024/01/22 01:05:03;;;;;;;7.72;3.10;;;;;;;;;;4961884;29;20087;-60
2024/01/22 01:07:28;;;;;;;8.23;3.13;;;;;;;;;;4973426;29;20031;-60
2024/01/22 01:09:54;;;;;;;10.77;3.53;;;;;;;;;;4965659;29;20121;-60
2024/01/22 01:12:19;;;;;;;10.15;3.20;;;;;;;;;;4961199;29;20031;-60
2024/01/22 01:14:45;;;;;;;10.00;3.53;;;;;;;;;;4959866;29;20040;-60
2024/01/22 01:17:10;;;;;;;10.93;3.53;;;;;;;;;;4969576;29;20309;-61
2024/01/22 01:19:36;;;;;;;7.90;3.55;;;;;;;;;;4959892;29;20043;-61
2024/01/22 01:22:01;;;;;;;7.03;3.63;;;;;;;;;;4942999;29;20034;-61
2024/01/22 01:24:27;;;;;;;14.57;3.93;;;;;;;;;;4959785;29;20266;-60
2024/01/22 01:26:53;;;;;;;5.50;3.05;;;;;;;;;;4964148;29;20036;-60
2024/01/22 01:29:18;;;;;;;9.43;3.67;;;;;;;;;;4959730;29;20031;-60
2024/01/22 01:31:44;;;;;;;7.40;3.43;;;;;;;;;;4951429;29;20072;-60
2024/01/22 01:34:09;;;;;;;12.27;5.23;;;;;;;;;;4958742;29;20326;-60
2024/01/22 01:36:34;;;;;;;7.43;3.67;;;;;;;;;;4961220;28;20038;-58
2024/01/22 01:39:00;;;;;;;8.30;3.90;;;;;;;;;;4957650;29;20024;-60
2024/01/22 01:41:25;;;;;;;7.82;3.28;;;;;;;;;;4957512;29;20028;-58
2024/01/22 01:43:51;;;;;;;7.30;3.30;;;;;;;;;;4958325;29;20039;-60
2024/01/22 01:46:16;;;;;;;12.00;3.90;;;;;;;;;;4960871;29;20028;-61
2024/01/22 01:48:42;;;;;;;10.50;3.77;;;;;;;;;;4959144;29;20066;-62
2024/01/22 01:51:08;;;;;;;17.80;4.03;;;;;;;;;;4959159;29;20262;-60
2024/01/22 01:53:34;;;;;;;7.65;3.80;;;;;;;;;;4959236;29;20031;-61
2024/01/22 01:55:59;;;;;;;7.75;3.55;;;;;;;;;;4959272;29;20743;-60
2024/01/22 01:58:25;;;;;;;8.55;3.47;;;;;;;;;;4960904;29;20038;-61
2024/01/22 02:00:52;;;;;;;12.40;3.72;;;;;;;;;;4953556;29;20027;-60
2024/01/22 02:03:17;;;;;;;5.70;2.75;;;;;;;;;;4959055;29;20039;-60
2024/01/22 02:05:43;;;;;;;7.20;3.27;;;;;;;;;;4964317;29;20039;-61
2024/01/22 02:08:08;;;;;;;6.57;2.70;;;;;;;;;;4942751;29;20270;-61
2024/01/22 02:10:34;;;;;;;10.07;3.35;;;;;;;;;;4959132;29;20301;-62
2024/01/22 02:13:01;;;;;;;8.03;2.87;;;;;;;;;;4958738;29;20074;-60
2024/01/22 02:15:27;;;;;;;4.70;2.60;;;;;;;;;;4962501;29;20103;-60
2024/01/22 02:17:53;;;;;;;6.40;2.47;;;;;;;;;;4956160;29;20266;-61
2024/01/22 02:20:18;;;;;;;4.93;2.35;;;;;;;;;;4958839;29;20039;-60
2024/01/22 02:22:44;;;;;;;9.82;2.70;;;;;;;;;;4958475;29;20502;-61
2024/01/22 02:25:09;;;;;;;6.97;2.73;;;;;;;;;;4959392;29;20051;-60
2024/01/22 02:27:35;;;;;;;6.60;2.90;;;;;;;;;;4968765;29;20058;-60
2024/01/22 02:30:00;;;;;;;3.57;2.10;;;;;;;;;;4958746;29;20475;-61
2024/01/22 02:32:25;;;;;;;9.13;2.33;;;;;;;;;;4958317;29;20023;-61
2024/01/22 02:34:51;;;;;;;4.77;2.53;;;;;;;;;;4957901;29;20152;-61
2024/01/22 02:37:16;;;;;;;6.00;2.33;;;;;;;;;;4966196;29;20035;-61
2024/01/22 02:39:42;;;;;;;4.60;2.58;;;;;;;;;;4958316;29;20055;-61
2024/01/22 02:42:07;;;;;;;8.10;3.30;;;;;;;;;;4959981;29;20023;-62
2024/01/22 02:44:35;;;;;;;12.10;3.00;;;;;;;;;;4958174;29;20289;-63
2024/01/22 02:47:01;;;;;;;7.10;2.37;;;;;;;;;;4962985;29;20035;-64
2024/01/22 02:49:27;;;;;;;12.45;3.53;;;;;;;;;;4958165;29;20262;-64
2024/01/22 02:51:52;;;;;;;12.30;2.90;;;;;;;;;;4966751;29;20371;-62
2024/01/22 02:54:18;;;;;;;4.33;2.43;;;;;;;;;;4960978;29;20261;-62
2024/01/22 02:56:43;;;;;;;9.67;2.77;;;;;;;;;;4960108;29;20035;-63
2024/01/22 02:59:09;;;;;;;8.87;3.50;;;;;;;;;;4957926;29;20297;-63
2024/01/22 03:01:34;;;;;;;5.37;2.33;;;;;;;;;;4962844;29;20054;-63
2024/01/22 03:04:00;;;;;;;6.70;2.87;;;;;;;;;;4961136;29;20274;-63
2024/01/22 03:06:26;;;;;;;8.57;3.65;;;;;;;;;;4965852;29;20133;-63
2024/01/22 03:08:51;;;;;;;5.77;2.47;;;;;;;;;;4958363;29;20031;-63
2024/01/22 03:11:16;;;;;;;4.63;2.47;;;;;;;;;;4958212;29;20297;-62
2024/01/22 03:13:42;;;;;;;6.33;3.23;;;;;;;;;;4961167;29;20035;-63
2024/01/22 03:16:07;;;;;;;7.47;2.53;;;;;;;;;;4962508;29;20296;-62
2024/01/22 03:18:33;;;;;;;7.00;3.17;;;;;;;;;;4960912;29;20031;-63
2024/01/22 03:21:00;;;;;;;5.93;2.50;;;;;;;;;;4941147;29;20042;-61
2024/01/22 03:23:26;;;;;;;7.17;2.60;;;;;;;;;;4957571;29;20032;-62
2024/01/22 03:25:52;;;;;;;4.43;2.63;;;;;;;;;;4958646;29;20359;-62
2024/01/22 03:28:17;;;;;;;6.87;3.00;;;;;;;;;;4964181;29;20035;-61
2024/01/22 03:30:42;;;;;;;3.67;2.47;;;;;;;;;;4957453;29;20039;-62
2024/01/22 03:33:07;;;;;;;4.50;2.47;;;;;;;;;;4962771;29;20043;-62
2024/01/22 03:35:33;;;;;;;5.45;2.70;;;;;;;;;;4957329;29;20039;-62
2024/01/22 03:37:58;;;;;;;4.30;2.47;;;;;;;;;;4962574;29;20046;-62
2024/01/22 03:40:24;;;;;;;4.22;2.78;;;;;;;;;;4957455;29;20075;-62
2024/01/22 03:42:49;;;;;;;6.45;3.38;;;;;;;;;;4957030;29;20055;-62
2024/01/22 03:45:15;;;;;;;5.50;2.57;;;;;;;;;;4957183;29;20091;-63
2024/01/22 03:47:40;;;;;;;8.33;3.00;;;;;;;;;;4957913;29;20280;-63
2024/01/22 03:50:06;;;;;;;6.63;2.22;;;;;;;;;;4959732;29;20039;-63
2024/01/22 03:52:32;;;;;;;4.63;2.30;;;;;;;;;;4960786;29;20075;-64
2024/01/22 03:54:58;;;;;;;8.27;3.47;;;;;;;;;;4957027;29;20243;-64
2024/01/22 03:57:23;;;;;;;6.77;3.07;;;;;;;;;;4948191;29;20290;-65
2024/01/22 03:59:49;;;;;;;8.07;2.72;;;;;;;;;;4956142;29;20028;-64
2024/01/22 04:02:14;;;;;;;6.33;2.77;;;;;;;;;;4957174;29;20042;-64
2024/01/22 04:04:41;;;;;;;4.60;2.47;;;;;;;;;;4956979;29;20273;-65
2024/01/22 04:07:07;;;;;;;6.27;3.00;;;;;;;;;;4964826;29;20059;-64
2024/01/22 04:09:32;;;;;;;4.47;3.10;;;;;;;;;;4956825;29;20329;-63
2024/01/22 04:11:58;;;;;;;8.27;3.00;;;;;;;;;;4940623;29;20059;-63
2024/01/22 04:14:23;;;;;;;5.43;3.03;;;;;;;;;;4957066;29;20031;-64
2024/01/22 04:16:50;;;;;;;6.15;2.55;;;;;;;;;;4962991;29;20300;-64
2024/01/22 04:19:15;;;;;;;;;;;;;;;;;;4967186;28;20044;-65
2024/01/22 04:21:45;;;;;;;3.00;1.97;;;;;;;;;;4956753;29;19918;-63
2024/01/22 04:24:10;;;;;;;4.23;2.20;;;;;;;;;;4940293;29;20024;-62
2024/01/22 04:26:36;;;;;;;2.97;1.85;;;;;;;;;;4959149;29;20289;-63
2024/01/22 04:29:01;;;;;;;3.35;1.63;;;;;;;;;;4965206;29;20063;-63
2024/01/22 04:31:27;;;;;;;5.17;1.93;;;;;;;;;;4956700;29;20071;-62
2024/01/22 04:33:54;;;;;;;5.40;1.60;;;;;;;;;;4956774;29;20577;-61
2024/01/22 04:36:19;;;;;;;3.10;1.63;;;;;;;;;;4958155;29;20027;-62
2024/01/22 04:38:45;;;;;;;4.60;2.00;;;;;;;;;;4968938;29;20254;-62
2024/01/22 04:41:11;;;;;;;6.47;1.57;;;;;;;;;;4961112;29;20063;-62
2024/01/22 04:43:37;;;;;;;7.10;1.80;;;;;;;;;;4957233;29;20032;-62
2024/01/22 04:46:02;;;;;;;4.78;2.13;;;;;;;;;;4957450;29;20071;-62
2024/01/22 04:48:28;;;;;;;4.33;2.10;;;;;;;;;;4961789;29;20059;-63
2024/01/22 04:50:53;;;;;;;5.13;1.40;;;;;;;;;;4956455;29;20301;-61
2024/01/22 04:53:19;;;;;;;3.67;1.80;;;;;;;;;;4956563;29;20051;-62
2024/01/22 04:55:44;;;;;;;4.47;1.98;;;;;;;;;;4956195;29;20099;-62
2024/01/22 04:58:10;;;;;;;3.83;1.90;;;;;;;;;;4963160;29;20020;-62
2024/01/22 05:00:35;;;;;;;5.20;2.55;;;;;;;;;;4958800;29;20032;-62
2024/01/22 05:03:04;;;;;;;4.40;2.13;;;;;;;;;;4957862;29;20030;-62
2024/01/22 05:05:34;;;;;;;5.97;1.90;;;;;;;;;;4960630;29;20031;-62
2024/01/22 05:07:59;;;;;;;5.10;1.70;;;;;;;;;;4969998;29;20312;-62
2024/01/22 05:10:24;;;;;;;3.63;2.00;;;;;;;;;;4949339;29;20307;-62
2024/01/22 05:12:50;;;;;;;2.38;1.45;;;;;;;;;;4959845;29;20053;-63
2024/01/22 05:15:15;;;;;;;5.33;1.30;;;;;;;;;;4960003;29;20052;-63
2024/01/22 05:17:41;;;;;;;4.97;2.03;;;;;;;;;;4959645;29;20281;-63
2024/01/22 05:20:08;;;;;;;2.47;1.50;;;;;;;;;;4959630;29;20334;-62
2024/01/22 05:22:36;;;;;;;4.35;1.67;;;;;;;;;;4951553;29;20047;-61
2024/01/22 05:25:03;;;;;;;2.23;1.27;;;;;;;;;;4960891;29;20076;-62
2024/01/22 05:27:29;;;;;;;1.60;0.90;;;;;;;;;;4963590;29;20321;-61
2024/01/22 05:29:54;;;;;;;5.22;1.05;;;;;;;;;;4959266;29;20035;-63
2024/01/22 05:32:20;;;;;;;2.28;1.08;;;;;;;;;;4959593;29;20109;-62
2024/01/22 05:34:45;;;;;;;2.70;0.90;;;;;;;;;;4959345;29;20039;-61
2024/01/22 05:37:10;;;;;;;2.60;1.00;;;;;;;;;;4962360;29;20075;-61
2024/01/22 05:39:37;;;;;;;5.63;1.10;;;;;;;;;;4961533;29;20048;-62
2024/01/22 05:42:03;;;;;;;4.73;1.10;;;;;;;;;;4963818;29;20112;-61
2024/01/22 05:44:29;;;;;;;1.87;1.00;;;;;;;;;;4967984;29;20290;-61
2024/01/22 05:46:54;;;;;;;2.55;1.08;;;;;;;;;;4964675;29;20027;-62
2024/01/22 05:49:19;;;;;;;1.50;0.73;;;;;;;;;;4964408;29;20148;-62
2024/01/22 05:51:45;;;;;;;7.97;1.52;;;;;;;;;;4970336;29;20499;-61
2024/01/22 05:54:11;;;;;;;5.37;0.97;;;;;;;;;;4959045;29;20079;-61
2024/01/22 05:56:36;;;;;;;7.15;1.67;;;;;;;;;;4962224;29;20042;-62
2024/01/22 05:59:03;;;;;;;3.47;1.30;;;;;;;;;;4971976;29;20071;-61
2024/01/22 06:01:29;;;;;;;2.73;0.90;;;;;;;;;;4967210;29;20031;-61
2024/01/22 06:03:55;;;;;;;5.68;1.60;;;;;;;;;;4959212;29;20745;-62
2024/01/22 06:06:20;;;;;;;6.10;1.43;;;;;;;;;;4970215;29;20042;-61
2024/01/22 06:08:47;;;;;;;24.55;1.90;;;;;;;;;;4969425;29;20301;-61
2024/01/22 06:11:13;;;;;;;4.73;1.77;;;;;;;;;;4958822;29;20043;-60
2024/01/22 06:13:39;;;;;;;1.85;1.20;;;;;;;;;;4958872;29;20281;-61
2024/01/22 06:16:12;;;;;;;4.87;1.30;;;;;;;;;;4958939;29;20048;-61
2024/01/22 06:18:38;;;;;;;5.43;1.10;;;;;;;;;;4963741;29;20023;-61
2024/01/22 06:21:04;;;;;;;6.03;1.10;;;;;;;;;;4958552;29;20290;-61
2024/01/22 06:23:31;;;;;;;2.42;1.27;;;;;;;;;;4957508;29;20023;-61
2024/01/22 06:25:56;;;;;;;5.75;0.90;;;;;;;;;;4958189;29;20069;-62
2024/01/22 06:28:26;;;;;;;2.70;1.20;;;;;;;;;;4967033;29;20090;-61
2024/01/22 06:30:52;;;;;;;6.53;1.37;;;;;;;;;;4958084;29;20055;-60
2024/01/22 06:33:18;;;;;;;6.72;1.10;;;;;;;;;;4964083;29;20302;-61
2024/01/22 06:35:44;;;;;;;4.60;1.45;;;;;;;;;;4958207;29;20032;-61
2024/01/22 06:38:10;;;;;;;2.70;1.08;;;;;;;;;;4969057;29;20027;-62
2024/01/22 06:40:35;;;;;;;7.73;1.27;;;;;;;;;;4967628;29;20060;-62
2024/01/22 06:43:00;;;;;;;3.70;1.30;;;;;;;;;;4958120;29;20030;-62
2024/01/22 06:45:26;;;;;;;2.53;1.33;;;;;;;;;;4958242;29;20055;-61
2024/01/22 06:47:54;;;;;;;5.82;1.00;;;;;;;;;;4958342;29;20032;-61
2024/01/22 06:50:20;;;;;;;4.10;1.00;;;;;;;;;;4959894;29;20035;-61
2024/01/22 06:52:46;;;;;;;3.23;1.20;;;;;;;;;;4958863;29;20316;-61
2024/01/22 06:55:11;;;;;;;7.18;1.50;;;;;;;;;;4961740;29;20039;-61
2024/01/22 06:57:37;;;;;;;4.15;1.77;;;;;;;;;;4963273;29;20063;-62
2024/01/22 07:00:07;;;;;;;6.17;1.43;;;;;;;;;;4965211;28;20036;-62
2024/01/22 07:02:32;;;;;;;5.80;1.20;;;;;;;;;;4957308;29;20269;-62
2024/01/22 07:04:58;;;;;;;11.52;1.98;;;;;;;;;;4957575;29;20258;-61
2024/01/22 07:07:23;;;;;;;6.20;1.83;;;;;;;;;;4961458;29;20035;-63
2024/01/22 07:09:49;;;;;;;7.30;1.77;;;;;;;;;;4962219;29;20281;-62
2024/01/22 07:12:15;;;;;;;9.15;1.60;;;;;;;;;;4928379;29;20060;-63
2024/01/22 07:14:41;;;;;;;16.20;1.80;;;;;;;;;;4955384;29;20035;-63
2024/01/22 07:17:06;;;;;;;7.97;1.80;;;;;;;;;;4968102;29;20333;-63
2024/01/22 07:19:32;;;;;;;6.72;1.80;;;;;;;;;;4965084;29;20038;-63
2024/01/22 07:21:57;;;;;;;17.17;2.63;;;;;;;;;;4959898;29;20036;-63
2024/01/22 07:24:23;;;;;;;11.20;2.10;;;;;;;;;;4957036;29;20031;-63
2024/01/22 07:26:48;;;;;;;13.77;2.22;;;;;;;;;;4956803;29;20042;-62
2024/01/22 07:29:14;;;;;;;10.77;2.00;;;;;;;;;;4962925;29;20031;-60
2024/01/22 07:31:39;;;;;;;13.35;2.05;;;;;;;;;;4956605;29;20040;-62
2024/01/22 07:34:05;;;;;;;7.17;1.70;;;;;;;;;;4956434;29;20051;-62
2024/01/22 07:36:31;;;;;;;;;;;;;;;;;;4963520;29;20031;-61
2024/01/22 07:38:57;;;;;;;7.83;2.17;;;;;;;;;;4965971;29;19960;-61
2024/01/22 07:41:23;;;;;;;15.77;2.50;;;;;;;;;;4964873;29;20035;-62
2024/01/22 07:43:49;;;;;;;14.07;3.38;;;;;;;;;;4957108;29;20294;-62
2024/01/22 07:46:14;;;;;;;15.32;2.28;;;;;;;;;;4949336;29;20047;-61
2024/01/22 07:48:40;;;;;;;8.93;1.87;;;;;;;;;;4957991;29;20095;-61
2024/01/22 07:51:05;;;;;;;8.27;1.93;;;;;;;;;;4956005;29;20281;-61
2024/01/22 07:53:30;;;;;;;15.00;3.03;;;;;;;;;;4961944;29;20070;-61
2024/01/22 07:55:56;;;;;;;19.77;3.47;;;;;;;;;;4957326;29;20035;-61
2024/01/22 07:58:21;;;;;;;11.73;2.30;;;;;;;;;;4955993;29;20039;-60
2024/01/22 08:00:47;;;;;;;17.03;2.77;;;;;;;;;;4956576;29;20288;-60
2024/01/22 08:03:12;;;;;;;14.98;2.65;;;;;;;;;;4955445;29;20660;-61
2024/01/22 08:05:38;;;;;;;15.87;3.70;;;;;;;;;;4955818;29;20052;-61
2024/01/22 08:08:03;;;;;;;17.43;2.97;;;;;;;;;;4958285;29;20095;-61
2024/01/22 08:10:29;;;;;;;24.95;3.38;;;;;;;;;;4956171;29;20251;-61
2024/01/22 08:12:54;;;;;;;11.50;2.90;;;;;;;;;;4939189;29;20043;-62
2024/01/22 08:15:20;;;;;;;10.80;2.03;;;;;;;;;;4962545;29;20074;-60
2024/01/22 08:17:48;;;;;;;13.02;3.60;;;;;;;;;;4956690;29;20031;-61
2024/01/22 08:20:14;;;;;;;12.10;2.73;;;;;;;;;;4961148;29;20059;-61
2024/01/22 08:22:40;;;;;;;11.48;2.42;;;;;;;;;;4955904;29;20270;-61
2024/01/22 08:25:06;;;;;;;12.20;2.50;;;;;;;;;;4959381;29;20083;-61
2024/01/22 08:27:31;;;;;;;8.98;2.65;;;;;;;;;;4956057;29;20063;-61
2024/01/22 08:29:57;;;;;;;10.63;3.07;;;;;;;;;;4961136;29;20045;-61
2024/01/22 08:32:23;;;;;;;9.90;2.97;;;;;;;;;;4959749;29;20123;-62
2024/01/22 08:34:48;;;;;;;20.52;3.95;;;;;;;;;;4955345;29;20036;-61
2024/01/22 08:37:13;;;;;;;14.32;3.13;;;;;;;;;;4956430;29;20035;-61
2024/01/22 08:39:39;;;;;;;18.10;2.93;;;;;;;;;;4967186;29;20046;-61
2024/01/22 08:42:04;;;;;;;16.67;2.97;;;;;;;;;;4956015;29;20070;-61
2024/01/22 08:44:30;;;;;;;17.10;3.07;;;;;;;;;;4959294;29;20016;-61
2024/01/22 08:46:55;;;;;;;18.70;4.70;;;;;;;;;;4958939;29;20266;-61
2024/01/22 08:49:21;;;;;;;14.52;4.50;;;;;;;;;;4963777;29;20270;-61
2024/01/22 08:51:46;;;;;;;16.23;3.27;;;;;;;;;;4959463;29;20056;-61
2024/01/22 08:54:11;;;;;;;21.03;3.87;;;;;;;;;;4959303;29;20056;-61
2024/01/22 08:56:37;;;;;;;22.00;3.90;;;;;;;;;;4959326;29;20055;-61
2024/01/22 08:59:02;;;;;;;25.23;4.13;;;;;;;;;;4959572;29;20104;-61
2024/01/22 09:01:27;;;;;;;23.93;4.40;;;;;;;;;;4963005;29;20032;-60
2024/01/22 09:03:54;;;;;;;18.40;4.30;;;;;;;;;;4961984;29;20059;-60
2024/01/22 09:06:19;;;;;;;27.13;5.38;;;;;;;;;;4963850;29;20281;-60
2024/01/22 09:08:45;;;;;;;30.70;6.47;;;;;;;;;;4959748;29;20102;-61
2024/01/22 09:11:10;;;;;;;24.53;4.10;;;;;;;;;;4959746;29;20270;-63
2024/01/22 09:13:36;;;;;;;24.45;5.00;;;;;;;;;;4959176;29;20035;-62
2024/01/22 09:16:02;;;;;;;25.73;4.60;;;;;;;;;;4960265;29;20067;-62
2024/01/22 09:18:27;;;;;;;26.27;5.53;;;;;;;;;;4954962;29;20050;-62
2024/01/22 09:20:54;;;;;;;25.97;5.87;;;;;;;;;;4967446;29;20036;-62
2024/01/22 09:23:21;;;;;;;26.50;5.07;;;;;;;;;;4965978;29;20332;-63
2024/01/22 09:25:47;;;;;;;1.43;1.33;;;;;;;;;;4970894;29;20264;-61
2024/01/22 09:28:14;;;;;;;28.67;5.55;;;;;;;;;;4950882;29;20270;-62
2024/01/22 09:30:40;;;;;;;31.58;6.20;;;;;;;;;;4963357;29;20051;-64
2024/01/22 09:33:05;;;;;;;29.77;4.57;;;;;;;;;;4964320;29;20038;-62
2024/01/22 09:35:31;;;;;;;23.83;5.47;;;;;;;;;;4958360;29;20032;-63
2024/01/22 09:37:57;;;;;;;26.23;4.82;;;;;;;;;;4958945;29;20031;-62
2024/01/22 09:40:24;;;;;;;16.20;2.60;;;;;;;;;;4962549;29;20043;-62
2024/01/22 09:42:49;;;;;;;11.00;2.67;;;;;;;;;;4960871;29;20058;-64
2024/01/22 09:45:15;;;;;;;16.73;2.95;;;;;;;;;;4966918;29;20266;-63
2024/01/22 09:47:40;;;;;;;14.83;2.10;;;;;;;;;;4957936;29;20055;-63
2024/01/22 09:50:06;;;;;;;20.60;4.00;;;;;;;;;;4960176;29;20280;-63
2024/01/22 09:52:33;;;;;;;21.65;3.03;;;;;;;;;;4962236;29;20102;-63
2024/01/22 09:54:58;;;;;;;32.17;4.07;;;;;;;;;;4964079;29;20031;-64
2024/01/22 09:57:25;;;;;;;39.97;5.40;;;;;;;;;;4965654;29;20039;-62
2024/01/22 09:59:51;;;;;;;30.33;5.50;;;;;;;;;;4960872;29;20030;-62
2024/01/22 10:02:17;;;;;;;31.30;4.90;;;;;;;;;;4959380;29;20295;-62
2024/01/22 10:04:44;;;;;;;39.45;5.45;;;;;;;;;;4958490;29;20032;-62
2024/01/22 10:07:11;;;;;;;42.73;6.67;;;;;;;;;;4959177;29;20042;-62
2024/01/22 10:09:37;;;;;;;55.10;7.83;;;;;;;;;;4961799;29;20270;-63
2024/01/22 10:12:02;;;;;;;42.83;6.80;;;;;;;;;;4960787;29;20297;-62
2024/01/22 10:14:30;;;;;;;48.38;8.10;;;;;;;;;;4958563;29;20036;-62
2024/01/22 10:16:57;;;;;;;27.47;4.90;;;;;;;;;;4957688;29;20071;-62
2024/01/22 10:19:26;;;;;;;29.50;3.80;;;;;;;;;;4958351;29;20270;-63
2024/01/22 10:21:59;;;;;;;30.67;3.80;;;;;;;;;;4965961;29;20038;-61
2024/01/22 10:24:25;;;;;;;33.10;4.30;;;;;;;;;;4963419;29;20270;-62
2024/01/22 10:26:50;;;;;;;37.67;5.00;;;;;;;;;;4958686;29;20298;-62
2024/01/22 10:29:22;;;;;;;28.47;4.67;;;;;;;;;;4957941;29;20346;-62
2024/01/22 10:31:52;;;;;;;32.87;6.77;;;;;;;;;;4960970;29;20116;-61
2024/01/22 10:34:17;;;;;;;38.97;5.00;;;;;;;;;;4962859;29;20265;-61
2024/01/22 10:36:42;;;;;;;46.07;5.50;;;;;;;;;;4957679;29;20329;-62
2024/01/22 10:39:08;;;;;;;38.17;5.80;;;;;;;;;;4957601;29;20117;-61
2024/01/22 10:41:35;;;;;;;24.80;4.80;;;;;;;;;;4959813;29;20031;-63
2024/01/22 10:44:00;;;;;;;51.00;5.32;;;;;;;;;;4951779;29;20031;-61
2024/01/22 10:46:26;;;;;;;30.83;5.10;;;;;;;;;;4958451;29;20034;-61
2024/01/22 10:48:52;;;;;;;50.20;6.33;;;;;;;;;;4957349;29;20044;-62
2024/01/22 10:51:18;;;;;;;;;;;;;;;;;;4966656;29;20023;-61
2024/01/22 10:53:44;;;;;;;38.63;4.07;;;;;;;;;;4956799;29;19914;-62
2024/01/22 10:56:17;;;;;;;31.08;3.83;;;;;;;;;;4957233;29;20042;-61
2024/01/22 10:58:46;;;;;;;39.13;4.83;;;;;;;;;;4962002;29;20051;-61
2024/01/22 11:01:15;;;;;;;54.10;8.70;;;;;;;;;;4958314;29;20272;-62
2024/01/22 11:03:46;;;;;;;39.63;5.73;;;;;;;;;;4959399;29;20265;-61
2024/01/22 11:06:11;;;;;;;35.00;4.80;;;;;;;;;;4963861;29;20259;-60
2024/01/22 11:08:38;;;;;;;44.90;6.82;;;;;;;;;;4956394;29;20262;-61
2024/01/22 11:11:04;;;;;;;38.63;5.13;;;;;;;;;;4960654;29;20044;-60
2024/01/22 11:13:30;;;;;;;46.53;7.85;;;;;;;;;;4962078;29;20028;-62
2024/01/22 11:15:56;;;;;;;42.85;6.63;;;;;;;;;;4960626;29;20047;-61
2024/01/22 11:18:21;;;;;;;37.15;6.65;;;;;;;;;;4957710;29;20036;-61
2024/01/22 11:20:50;;;;;;;41.85;6.35;;;;;;;;;;4963360;29;20121;-61
2024/01/22 11:23:16;;;;;;;45.17;6.43;;;;;;;;;;4941214;29;20055;-61
2024/01/22 11:25:42;;;;;;;32.20;5.10;;;;;;;;;;4956412;29;20032;-62
2024/01/22 11:28:09;;;;;;;24.85;4.38;;;;;;;;;;4952775;29;20091;-61
2024/01/22 11:30:34;;;;;;;;;;;;;;;;;;4957318;29;20034;-61
2024/01/22 11:32:59;;;;;;;46.37;8.67;;;;;;;;;;4959945;29;19910;-62
2024/01/22 11:35:35;;;;;;;40.83;7.00;;;;;;;;;;4962636;29;20107;-60
2024/01/22 11:38:01;;;;;;;30.00;6.50;;;;;;;;;;4960680;29;20032;-61
2024/01/22 11:40:46;;;;;;;37.60;7.70;;;;;;;;;;4956970;29;20042;-61
2024/01/22 11:43:12;;;;;;;39.20;8.23;;;;;;;;;;4957336;29;20020;-63
2024/01/22 11:45:37;;;;;;;43.38;7.65;;;;;;;;;;4956100;29;20035;-61
2024/01/22 11:48:03;;;;;;;50.17;8.90;;;;;;;;;;4956468;29;20087;-61
2024/01/22 11:50:28;;;;;;;39.03;7.45;;;;;;;;;;4939701;29;20270;-62
2024/01/22 11:52:58;;;;;;;35.08;7.90;;;;;;;;;;4961802;29;20099;-61
2024/01/22 11:55:24;;;;;;;34.97;7.37;;;;;;;;;;4959368;29;20095;-61
2024/01/22 11:57:50;;;;;;;36.88;7.30;;;;;;;;;;4956950;29;20031;-61
2024/01/22 12:00:24;;;;;;;32.15;7.40;;;;;;;;;;4956143;29;20086;-62
2024/01/22 12:02:51;;;;;;;39.53;7.37;;;;;;;;;;4957625;29;20028;-61
2024/01/22 12:05:17;;;;;;;43.13;7.83;;;;;;;;;;4956950;29;20059;-61
2024/01/22 12:07:46;;;;;;;26.40;5.18;;;;;;;;;;4955904;29;20032;-61
2024/01/22 12:10:22;;;;;;;33.10;8.13;;;;;;;;;;4955962;29;20078;-61
2024/01/22 12:13:08;;;;;;;43.75;7.30;;;;;;;;;;4966715;29;20035;-61
2024/01/22 12:15:33;;;;;;;51.17;8.57;;;;;;;;;;4942111;29;20094;-59
2024/01/22 12:18:00;;;;;;;32.73;7.30;;;;;;;;;;4948577;29;20042;-61
2024/01/22 12:20:25;;;;;;;;;;;;;;;;;;4953260;29;20071;-61
2024/01/22 12:22:57;;;;;;;35.07;6.40;;;;;;;;;;4972360;28;19910;-61
2024/01/22 12:25:22;;;;;;;37.50;7.97;;;;;;;;;;4962921;29;20035;-60
2024/01/22 12:27:48;;;;;;;34.90;5.57;;;;;;;;;;4971055;29;20032;-60
2024/01/22 12:30:17;;;;;;;42.60;7.60;;;;;;;;;;4961666;29;20030;-60
2024/01/22 12:32:54;;;;;;;39.13;7.33;;;;;;;;;;4949833;29;20087;-60
2024/01/22 12:35:20;;;;;;;45.73;8.43;;;;;;;;;;4963266;29;20059;-60
2024/01/22 12:37:46;;;;;;;36.88;7.95;;;;;;;;;;4962301;29;20043;-61
2024/01/22 12:40:16;;;;;;;45.85;8.75;;;;;;;;;;4970916;28;20032;-61
2024/01/22 12:42:43;;;;;;;37.40;7.50;;;;;;;;;;4967514;28;20027;-61
2024/01/22 12:45:11;;;;;;;35.40;7.53;;;;;;;;;;4962254;29;20031;-61
2024/01/22 12:47:36;;;;;;;40.87;8.57;;;;;;;;;;4965052;28;20047;-61
2024/01/22 12:50:02;;;;;;;39.73;6.73;;;;;;;;;;4945265;29;20063;-60
2024/01/22 12:52:28;;;;;;;26.27;5.77;;;;;;;;;;4963567;29;20107;-62
2024/01/22 12:54:53;;;;;;;34.40;6.22;;;;;;;;;;4961770;29;20039;-61
2024/01/22 12:57:19;;;;;;;24.73;6.80;;;;;;;;;;4969304;29;20043;-61
2024/01/22 12:59:45;;;;;;;35.83;7.03;;;;;;;;;;4964773;28;20139;-61
2024/01/22 13:02:11;;;;;;;35.00;6.60;;;;;;;;;;4969632;29;20030;-60
2024/01/22 13:04:36;;;;;;;30.97;5.83;;;;;;;;;;4963086;28;20024;-61
2024/01/22 13:07:02;;;;;;;27.37;5.90;;;;;;;;;;4967684;29;20036;-60
2024/01/22 13:09:27;;;;;;;26.67;5.97;;;;;;;;;;4961928;29;20040;-61
2024/01/22 13:11:52;;;;;;;34.23;6.90;;;;;;;;;;4963362;29;20043;-62
2024/01/22 13:14:18;;;;;;;30.20;7.25;;;;;;;;;;4966912;29;20050;-61
2024/01/22 13:16:43;;;;;;;27.80;5.88;;;;;;;;;;4969985;29;20054;-61
2024/01/22 13:19:09;;;;;;;30.08;6.90;;;;;;;;;;4961764;29;20063;-61
2024/01/22 13:21:35;;;;;;;20.90;5.15;;;;;;;;;;4962594;29;20054;-61
2024/01/22 13:24:00;;;;;;;34.03;7.28;;;;;;;;;;4970754;29;20034;-61
2024/01/22 13:26:26;;;;;;;21.67;6.65;;;;;;;;;;4961419;29;20050;-61
2024/01/22 13:28:52;;;;;;;23.30;5.38;;;;;;;;;;4961599;29;20091;-61
2024/01/22 13:31:17;;;;;;;;;;;;;;;;;;4961810;29;20049;-60
2024/01/22 13:33:43;;;;;;;24.07;6.20;;;;;;;;;;4968294;29;19911;-61
2024/01/22 13:36:09;;;;;;;;;;;;;;;;;;4958931;29;20050;-61
2024/01/22 13:38:36;;;;;;;24.97;5.83;;;;;;;;;;4958961;29;19949;-60
2024/01/22 13:41:03;;;;;;;20.67;4.83;;;;;;;;;;4958634;29;20031;-60
2024/01/22 13:43:29;;;;;;;17.93;4.07;;;;;;;;;;4960199;29;20037;-61
2024/01/22 13:45:54;;;;;;;27.33;5.07;;;;;;;;;;4958139;29;20063;-61
2024/01/22 13:48:21;;;;;;;29.40;6.10;;;;;;;;;;4963212;29;20046;-61
2024/01/22 13:50:47;;;;;;;26.90;6.10;;;;;;;;;;4958113;29;20039;-60
2024/01/22 13:53:14;;;;;;;16.23;4.32;;;;;;;;;;4965288;29;20063;-61
2024/01/22 13:55:40;;;;;;;23.67;5.60;;;;;;;;;;4962826;29;20044;-60
2024/01/22 13:58:05;;;;;;;28.37;5.37;;;;;;;;;;4959487;29;20051;-59
2024/01/22 14:00:31;;;;;;;20.90;4.85;;;;;;;;;;4958348;29;20027;-61
2024/01/22 14:02:56;;;;;;;22.15;4.40;;;;;;;;;;4961693;29;20031;-60
2024/01/22 14:05:22;;;;;;;27.27;6.00;;;;;;;;;;4958125;29;20028;-61
2024/01/22 14:07:47;;;;;;;27.93;5.53;;;;;;;;;;4957601;29;20040;-61
2024/01/22 14:10:12;;;;;;;27.43;5.60;;;;;;;;;;4961206;29;20035;-61
2024/01/22 14:12:38;;;;;;;26.13;4.57;;;;;;;;;;4958234;29;20046;-60
2024/01/22 14:15:03;;;;;;;24.40;4.50;;;;;;;;;;4958882;29;20076;-61
2024/01/22 14:17:30;;;;;;;19.67;4.07;;;;;;;;;;4963005;29;20107;-60
2024/01/22 14:19:56;;;;;;;23.17;5.00;;;;;;;;;;4958367;29;20040;-61
2024/01/22 14:22:24;;;;;;;24.08;4.38;;;;;;;;;;4961433;29;20086;-61
2024/01/22 14:24:50;;;;;;;25.67;4.37;;;;;;;;;;4963530;29;20064;-61
2024/01/22 14:27:15;;;;;;;30.30;5.30;;;;;;;;;;4957791;29;20035;-60
2024/01/22 14:29:41;;;;;;;26.30;5.53;;;;;;;;;;4960101;29;20032;-60
2024/01/22 14:32:07;;;;;;;27.38;5.38;;;;;;;;;;4958923;29;20028;-60